createdAt,value
2022-09-28T00:00:32.450Z,8.77
2022-09-28T00:01:32.499Z,8.82
2022-09-28T00:02:32.514Z,8.85
2022-09-28T00:03:32.456Z,8.75
2022-09-28T00:04:32.423Z,8.84
2022-09-28T00:05:32.414Z,8.93
2022-09-28T00:06:32.405Z,8.96
2022-09-28T00:07:32.397Z,9.02
2022-09-28T00:08:32.413Z,8.95
2022-09-28T00:09:32.375Z,8.99
2022-09-28T00:10:32.357Z,9.02
2022-09-28T00:11:32.354Z,9.11
2022-09-28T00:12:32.348Z,9.00
2022-09-28T00:13:32.375Z,9.14
2022-09-28T00:14:32.334Z,9.15
2022-09-28T00:15:32.325Z,9.18
2022-09-28T00:16:32.352Z,9.15
2022-09-28T00:17:32.311Z,9.16
2022-09-28T00:18:32.334Z,9.18
2022-09-28T00:19:32.296Z,9.25
2022-09-28T00:20:32.292Z,9.36
2022-09-28T00:21:32.284Z,9.26
2022-09-28T00:22:32.271Z,9.32
2022-09-28T00:23:32.296Z,9.43
2022-09-28T00:24:32.254Z,9.40
2022-09-28T00:25:32.245Z,9.37
2022-09-28T00:26:32.234Z,9.32
2022-09-28T00:27:32.217Z,9.37
2022-09-28T00:28:32.253Z,9.43
2022-09-28T00:29:32.216Z,9.43
2022-09-28T00:30:32.204Z,9.43
2022-09-28T00:31:32.234Z,9.55
2022-09-28T00:32:32.189Z,9.44
2022-09-28T00:33:32.205Z,9.43
2022-09-28T00:34:32.182Z,9.55
2022-09-28T00:35:32.161Z,9.65
2022-09-28T00:36:32.163Z,9.54
2022-09-28T00:37:32.145Z,9.58
2022-09-28T00:38:32.173Z,9.59
2022-09-28T00:39:32.129Z,9.55
2022-09-28T00:40:32.166Z,9.52
2022-09-28T00:41:32.120Z,9.47
2022-09-28T00:42:32.113Z,9.65
2022-09-28T00:43:32.135Z,9.69
2022-09-28T00:44:32.091Z,9.62
2022-09-28T00:45:32.148Z,9.54
2022-09-28T00:46:33.073Z,9.49
2022-09-28T00:47:32.064Z,9.57
2022-09-28T00:48:32.090Z,9.52
2022-09-28T00:49:32.048Z,9.49
2022-09-28T00:50:32.045Z,9.55
2022-09-28T00:51:32.038Z,9.51
2022-09-28T00:52:32.028Z,9.47
2022-09-28T00:53:32.017Z,9.44
2022-09-28T00:54:32.047Z,9.54
2022-09-28T00:55:32.004Z,9.47
2022-09-28T00:56:31.993Z,9.49
2022-09-28T00:57:31.982Z,9.49
2022-09-28T00:58:31.979Z,9.47
2022-09-28T00:59:31.998Z,9.42
2022-09-28T01:00:32.019Z,9.51
2022-09-28T01:01:31.954Z,9.43
2022-09-28T01:02:32.035Z,9.44
2022-09-28T01:03:31.937Z,9.42
2022-09-28T01:04:31.957Z,9.42
2022-09-28T01:05:31.917Z,9.43
2022-09-28T01:06:31.910Z,9.49
2022-09-28T01:07:31.904Z,9.54
2022-09-28T01:08:31.893Z,9.47
2022-09-28T01:09:31.913Z,9.39
2022-09-28T01:10:31.883Z,9.37
2022-09-28T01:11:31.869Z,9.51
2022-09-28T01:12:31.859Z,9.51
2022-09-28T01:13:31.856Z,9.47
2022-09-28T01:14:31.871Z,9.52
2022-09-28T01:15:31.839Z,9.51
2022-09-28T01:16:31.865Z,9.49
2022-09-28T01:17:31.821Z,9.55
2022-09-28T01:18:31.816Z,9.42
2022-09-28T01:19:31.833Z,9.46
2022-09-28T01:20:31.802Z,9.40
2022-09-28T01:21:31.787Z,9.52
2022-09-28T01:22:31.774Z,9.49
2022-09-28T01:23:31.766Z,9.59
2022-09-28T01:24:31.786Z,9.46
2022-09-28T01:25:31.750Z,9.54
2022-09-28T01:26:31.739Z,9.54
2022-09-28T01:27:31.735Z,9.55
2022-09-28T01:28:31.723Z,9.44
2022-09-28T01:29:31.745Z,9.54
2022-09-28T01:30:31.708Z,9.49
2022-09-28T01:31:31.761Z,9.46
2022-09-28T01:32:31.694Z,9.46
2022-09-28T01:33:31.678Z,9.44
2022-09-28T01:34:31.699Z,9.52
2022-09-28T01:35:31.668Z,9.51
2022-09-28T01:36:31.653Z,9.52
2022-09-28T01:37:31.649Z,9.57
2022-09-28T01:38:31.639Z,9.55
2022-09-28T01:39:31.656Z,9.51
2022-09-28T01:40:31.651Z,9.65
2022-09-28T01:41:31.619Z,9.49
2022-09-28T01:42:31.604Z,9.57
2022-09-28T01:43:31.597Z,9.54
2022-09-28T01:44:31.626Z,9.58
2022-09-28T01:45:31.632Z,9.52
2022-09-28T01:46:31.575Z,9.57
2022-09-28T01:47:31.576Z,9.44
2022-09-28T01:48:31.562Z,9.59
2022-09-28T01:49:31.575Z,9.43
2022-09-28T01:50:31.543Z,9.57
2022-09-28T01:51:31.534Z,9.54
2022-09-28T01:52:31.535Z,9.52
2022-09-28T01:53:31.522Z,9.49
2022-09-28T01:54:31.538Z,9.44
2022-09-28T01:55:31.511Z,9.55
2022-09-28T01:56:31.500Z,9.44
2022-09-28T01:57:31.494Z,9.43
2022-09-28T01:58:31.474Z,9.49
2022-09-28T01:59:31.493Z,9.42
2022-09-28T02:00:31.507Z,9.54
2022-09-28T02:01:31.456Z,9.51
2022-09-28T02:02:31.519Z,9.46
2022-09-28T02:03:31.437Z,9.43
2022-09-28T02:04:31.462Z,9.40
2022-09-28T02:05:31.414Z,9.42
2022-09-28T02:06:31.415Z,9.42
2022-09-28T02:07:31.400Z,9.47
2022-09-28T02:08:31.387Z,9.43
2022-09-28T02:09:33.799Z,9.43
2022-09-28T02:10:32.374Z,9.42
2022-09-28T02:11:31.369Z,9.44
2022-09-28T02:12:31.354Z,9.36
2022-09-28T02:13:31.346Z,9.43
2022-09-28T02:14:31.364Z,9.33
2022-09-28T02:15:31.329Z,9.39
2022-09-28T02:16:31.407Z,9.42
2022-09-28T02:17:31.312Z,9.40
2022-09-28T02:18:31.309Z,9.42
2022-09-28T02:19:31.330Z,9.39
2022-09-28T02:20:31.294Z,9.44
2022-09-28T02:21:31.278Z,9.34
2022-09-28T02:22:31.275Z,9.28
2022-09-28T02:23:31.338Z,9.43
2022-09-28T02:24:31.284Z,9.37
2022-09-28T02:25:31.253Z,9.28
2022-09-28T02:26:31.261Z,9.32
2022-09-28T02:27:31.230Z,9.26
2022-09-28T02:28:31.222Z,9.34
2022-09-28T02:29:31.250Z,9.22
2022-09-28T02:30:31.203Z,9.24
2022-09-28T02:31:31.249Z,9.19
2022-09-28T02:32:31.188Z,9.28
2022-09-28T02:33:31.179Z,9.28
2022-09-28T02:34:31.191Z,9.36
2022-09-28T02:35:31.162Z,9.29
2022-09-28T02:36:31.153Z,9.29
2022-09-28T02:37:31.149Z,9.32
2022-09-28T02:38:31.146Z,9.33
2022-09-28T02:39:31.154Z,9.33
2022-09-28T02:40:31.153Z,9.25
2022-09-28T02:41:31.114Z,9.34
2022-09-28T02:42:31.115Z,9.34
2022-09-28T02:43:31.102Z,9.25
2022-09-28T02:44:31.114Z,9.24
2022-09-28T02:45:31.098Z,9.29
2022-09-28T02:46:31.078Z,9.36
2022-09-28T02:47:31.063Z,9.29
2022-09-28T02:48:45.737Z,9.25
2022-09-28T02:49:33.295Z,9.37
2022-09-28T02:50:31.041Z,9.32
2022-09-28T02:51:31.043Z,9.34
2022-09-28T02:52:31.026Z,9.34
2022-09-28T02:53:31.017Z,9.34
2022-09-28T02:54:31.046Z,9.22
2022-09-28T02:55:31.009Z,9.25
2022-09-28T02:56:30.991Z,9.25
2022-09-28T02:57:30.986Z,9.37
2022-09-28T02:58:30.975Z,9.29
2022-09-28T02:59:30.997Z,9.39
2022-09-28T03:00:30.956Z,9.33
2022-09-28T03:01:30.949Z,9.32
2022-09-28T03:02:31.025Z,9.32
2022-09-28T03:03:30.936Z,9.33
2022-09-28T03:04:30.955Z,9.34
2022-09-28T03:05:30.914Z,9.36
2022-09-28T03:06:30.908Z,9.34
2022-09-28T03:07:30.900Z,9.42
2022-09-28T03:08:30.891Z,9.32
2022-09-28T03:09:30.911Z,9.28
2022-09-28T03:10:30.875Z,9.34
2022-09-28T03:11:30.871Z,9.34
2022-09-28T03:12:30.857Z,9.39
2022-09-28T03:13:30.864Z,9.42
2022-09-28T03:14:30.870Z,9.40
2022-09-28T03:15:30.829Z,9.43
2022-09-28T03:16:30.842Z,9.40
2022-09-28T03:17:30.829Z,9.40
2022-09-28T03:18:30.808Z,9.43
2022-09-28T03:19:30.841Z,9.33
2022-09-28T03:20:30.793Z,9.26
2022-09-28T03:21:30.784Z,9.37
2022-09-28T03:22:30.773Z,9.34
2022-09-28T03:23:30.765Z,9.39
2022-09-28T03:24:30.792Z,9.43
2022-09-28T03:25:30.750Z,9.43
2022-09-28T03:26:30.747Z,9.36
2022-09-28T03:27:30.737Z,9.44
2022-09-28T03:28:30.725Z,9.40
2022-09-28T03:29:30.719Z,9.57
2022-09-28T03:30:30.737Z,9.52
2022-09-28T03:31:30.747Z,9.43
2022-09-28T03:32:30.693Z,9.46
2022-09-28T03:33:30.684Z,9.52
2022-09-28T03:34:30.712Z,9.46
2022-09-28T03:35:30.671Z,9.52
2022-09-28T03:36:30.659Z,9.58
2022-09-28T03:37:30.648Z,9.40
2022-09-28T03:38:30.643Z,9.43
2022-09-28T03:39:30.635Z,9.47
2022-09-28T03:40:30.708Z,9.51
2022-09-28T03:41:30.613Z,9.58
2022-09-28T03:42:30.614Z,9.55
2022-09-28T03:43:30.596Z,9.42
2022-09-28T03:44:30.583Z,9.47
2022-09-28T03:45:30.646Z,9.51
2022-09-28T03:46:30.579Z,9.52
2022-09-28T03:47:30.563Z,9.54
2022-09-28T03:48:32.660Z,9.54
2022-09-28T03:49:31.579Z,9.47
2022-09-28T03:50:30.542Z,9.49
2022-09-28T03:51:30.542Z,9.49
2022-09-28T03:52:30.525Z,9.51
2022-09-28T03:53:30.512Z,9.51
2022-09-28T03:54:30.542Z,9.52
2022-09-28T03:55:30.503Z,9.40
2022-09-28T03:56:30.492Z,9.55
2022-09-28T03:57:30.484Z,9.40
2022-09-28T03:58:30.477Z,9.57
2022-09-28T03:59:30.498Z,9.47
2022-09-28T04:00:30.459Z,9.46
2022-09-28T04:01:30.507Z,9.47
2022-09-28T04:02:30.492Z,9.52
2022-09-28T04:03:30.431Z,9.47
2022-09-28T04:04:30.461Z,9.52
2022-09-28T04:05:30.428Z,9.57
2022-09-28T04:06:30.409Z,9.57
2022-09-28T04:07:31.308Z,9.55
2022-09-28T04:08:31.392Z,9.42
2022-09-28T04:09:30.416Z,9.39
2022-09-28T04:10:30.376Z,9.43
2022-09-28T04:11:43.045Z,9.44
2022-09-28T04:12:32.360Z,9.47
2022-09-28T04:13:30.358Z,9.46
2022-09-28T04:14:30.372Z,9.40
2022-09-28T04:15:30.332Z,9.42
2022-09-28T04:16:30.409Z,9.40
2022-09-28T04:17:30.328Z,9.39
2022-09-28T04:18:30.310Z,9.39
2022-09-28T04:19:30.338Z,9.40
2022-09-28T04:20:30.290Z,9.37
2022-09-28T04:21:30.289Z,9.34
2022-09-28T04:22:30.278Z,9.46
2022-09-28T04:23:30.268Z,9.43
2022-09-28T04:24:30.290Z,9.36
2022-09-28T04:25:30.255Z,9.44
2022-09-28T04:26:30.250Z,9.40
2022-09-28T04:27:30.242Z,9.42
2022-09-28T04:28:30.233Z,9.42
2022-09-28T04:29:30.249Z,9.43
2022-09-28T04:30:30.220Z,9.40
2022-09-28T04:31:30.235Z,9.33
2022-09-28T04:32:30.198Z,9.36
2022-09-28T04:33:30.191Z,9.42
2022-09-28T04:34:35.136Z,9.36
2022-09-28T04:35:32.174Z,9.39
2022-09-28T04:36:30.171Z,9.33
2022-09-28T04:37:30.159Z,9.40
2022-09-28T04:38:48.818Z,9.43
2022-09-28T04:39:32.174Z,9.42
2022-09-28T04:40:30.288Z,9.43
2022-09-28T04:41:30.126Z,9.43
2022-09-28T04:42:30.112Z,9.40
2022-09-28T04:43:30.110Z,9.44
2022-09-28T04:44:30.137Z,9.42
2022-09-28T04:45:30.130Z,9.44
2022-09-28T04:46:30.075Z,9.42
2022-09-28T04:47:30.075Z,9.37
2022-09-28T04:48:30.062Z,9.42
2022-09-28T04:49:30.046Z,9.37
2022-09-28T04:50:30.077Z,9.51
2022-09-28T04:51:30.033Z,9.44
2022-09-28T04:52:30.026Z,9.52
2022-09-28T04:53:30.017Z,9.47
2022-09-28T04:54:30.006Z,9.49
2022-09-28T04:55:30.032Z,9.46
2022-09-28T04:56:29.995Z,9.58
2022-09-28T04:57:29.986Z,9.54
2022-09-28T04:58:29.988Z,9.46
2022-09-28T04:59:29.986Z,9.52
2022-09-28T05:00:29.987Z,9.44
2022-09-28T05:01:30.023Z,9.57
2022-09-28T05:02:29.983Z,9.51
2022-09-28T05:03:29.933Z,9.52
2022-09-28T05:04:29.929Z,9.46
2022-09-28T05:05:29.949Z,9.51
2022-09-28T05:06:29.907Z,9.51
2022-09-28T05:07:29.904Z,9.57
2022-09-28T05:08:29.894Z,9.58
2022-09-28T05:09:29.889Z,9.52
2022-09-28T05:10:29.907Z,9.52
2022-09-28T05:11:29.869Z,9.58
2022-09-28T05:12:29.856Z,9.57
2022-09-28T05:13:29.850Z,9.69
2022-09-28T05:14:29.843Z,9.57
2022-09-28T05:15:29.864Z,9.55
2022-09-28T05:16:29.901Z,9.58
2022-09-28T05:17:29.818Z,9.51
2022-09-28T05:18:29.809Z,9.59
2022-09-28T05:19:29.815Z,9.58
2022-09-28T05:20:29.834Z,9.57
2022-09-28T05:21:29.785Z,9.44
2022-09-28T05:22:29.787Z,9.51
2022-09-28T05:23:29.761Z,9.61
2022-09-28T05:24:29.763Z,9.46
2022-09-28T05:25:29.780Z,9.55
2022-09-28T05:26:29.757Z,9.54
2022-09-28T05:27:29.750Z,9.49
2022-09-28T05:28:29.745Z,9.52
2022-09-28T05:29:32.268Z,9.51
2022-09-28T05:30:30.750Z,9.47
2022-09-28T05:31:29.785Z,9.55
2022-09-28T05:32:29.691Z,9.54
2022-09-28T05:33:29.693Z,9.51
2022-09-28T05:34:29.672Z,9.52
2022-09-28T05:35:29.697Z,9.49
2022-09-28T05:36:29.666Z,9.43
2022-09-28T05:37:29.652Z,9.49
2022-09-28T05:38:29.643Z,9.46
2022-09-28T05:39:29.636Z,9.47
2022-09-28T05:40:29.662Z,9.57
2022-09-28T05:41:29.778Z,9.54
2022-09-28T05:42:29.613Z,9.49
2022-09-28T05:43:29.603Z,9.43
2022-09-28T05:44:29.601Z,9.39
2022-09-28T05:45:29.597Z,9.51
2022-09-28T05:46:29.665Z,9.46
2022-09-28T05:47:29.571Z,9.51
2022-09-28T05:48:29.563Z,9.55
2022-09-28T05:49:29.549Z,9.54
2022-09-28T05:50:29.546Z,9.42
2022-09-28T05:51:29.570Z,9.44
2022-09-28T05:52:29.532Z,9.43
2022-09-28T05:53:29.523Z,9.43
2022-09-28T05:54:29.514Z,9.44
2022-09-28T05:55:29.561Z,9.42
2022-09-28T05:56:29.526Z,9.42
2022-09-28T05:57:29.491Z,9.46
2022-09-28T05:58:29.486Z,9.43
2022-09-28T05:59:29.496Z,9.47
2022-09-28T06:00:29.573Z,9.57
2022-09-28T06:01:29.528Z,9.47
2022-09-28T06:02:29.482Z,9.57
2022-09-28T06:03:29.439Z,9.55
2022-09-28T06:04:29.437Z,9.46
2022-09-28T06:05:29.461Z,9.51
2022-09-28T06:06:29.413Z,9.55
2022-09-28T06:07:29.413Z,9.59
2022-09-28T06:08:29.399Z,9.54
2022-09-28T06:09:29.396Z,9.47
2022-09-28T06:10:29.423Z,9.49
2022-09-28T06:11:29.413Z,9.47
2022-09-28T06:12:29.368Z,9.55
2022-09-28T06:13:29.376Z,9.62
2022-09-28T06:14:29.353Z,9.64
2022-09-28T06:15:29.367Z,9.58
2022-09-28T06:16:29.421Z,9.58
2022-09-28T06:17:29.326Z,9.64
2022-09-28T06:18:29.316Z,9.69
2022-09-28T06:19:29.321Z,9.64
2022-09-28T06:20:29.333Z,9.67
2022-09-28T06:21:29.299Z,9.61
2022-09-28T06:22:29.288Z,9.57
2022-09-28T06:23:29.290Z,9.37
2022-09-28T06:24:29.267Z,9.39
2022-09-28T06:25:29.296Z,9.39
2022-09-28T06:26:29.258Z,9.46
2022-09-28T06:27:29.245Z,9.61
2022-09-28T06:28:29.245Z,9.72
2022-09-28T06:29:29.241Z,9.67
2022-09-28T06:30:29.334Z,9.61
2022-09-28T06:31:29.216Z,9.62
2022-09-28T06:32:29.209Z,9.46
2022-09-28T06:33:29.195Z,9.52
2022-09-28T06:34:29.386Z,9.64
2022-09-28T06:35:29.215Z,9.69
2022-09-28T06:36:29.184Z,9.79
2022-09-28T06:37:29.171Z,9.86
2022-09-28T06:38:29.155Z,9.61
2022-09-28T06:39:29.148Z,9.82
2022-09-28T06:40:29.316Z,9.80
2022-09-28T06:41:29.129Z,9.85
2022-09-28T06:42:29.139Z,9.93
2022-09-28T06:43:34.150Z,9.79
2022-09-28T06:44:31.099Z,9.79
2022-09-28T06:45:29.119Z,9.79
2022-09-28T06:46:29.144Z,9.85
2022-09-28T06:47:29.087Z,9.85
2022-09-28T06:48:29.071Z,9.91
2022-09-28T06:49:29.066Z,9.97
2022-09-28T06:50:29.057Z,10.15
2022-09-28T06:51:29.071Z,10.08
2022-09-28T06:52:29.036Z,10.18
2022-09-28T06:53:29.036Z,10.06
2022-09-28T06:54:29.030Z,10.10
2022-09-28T06:55:29.046Z,10.04
2022-09-28T06:56:32.688Z,9.93
2022-09-28T06:57:29.995Z,9.90
2022-09-28T06:58:28.990Z,9.86
2022-09-28T06:59:28.988Z,9.94
2022-09-28T07:00:29.008Z,9.94
2022-09-28T07:01:29.025Z,9.91
2022-09-28T07:02:29.007Z,9.98
2022-09-28T07:03:28.952Z,10.01
2022-09-28T07:04:28.945Z,9.91
2022-09-28T07:05:28.962Z,10.18
2022-09-28T07:06:28.918Z,10.09
2022-09-28T07:07:28.914Z,10.10
2022-09-28T07:08:28.906Z,10.15
2022-09-28T07:09:32.969Z,10.09
2022-09-28T07:10:30.911Z,10.04
2022-09-28T07:11:28.894Z,9.95
2022-09-28T07:12:28.876Z,9.95
2022-09-28T07:13:48.828Z,10.13
2022-09-28T07:14:46.735Z,10.06
2022-09-28T07:15:30.885Z,10.19
2022-09-28T07:16:46.274Z,10.09
2022-09-28T07:17:31.174Z,10.13
2022-09-28T07:18:28.919Z,10.12
2022-09-28T07:19:28.812Z,10.10
2022-09-28T07:20:29.837Z,10.09
2022-09-28T07:21:30.638Z,10.26
2022-09-28T07:22:40.920Z,10.13
2022-09-28T07:23:31.051Z,10.30
2022-09-28T07:24:28.769Z,10.34
2022-09-28T07:25:28.797Z,10.26
2022-09-28T07:26:28.761Z,10.30
2022-09-28T07:27:29.104Z,10.38
2022-09-28T07:28:29.731Z,10.38
2022-09-28T07:29:28.729Z,10.53
2022-09-28T07:30:28.749Z,10.37
2022-09-28T07:31:28.744Z,10.35
2022-09-28T07:32:28.710Z,10.22
2022-09-28T07:33:28.696Z,10.40
2022-09-28T07:34:28.690Z,10.38
2022-09-28T07:35:28.716Z,10.57
2022-09-28T07:36:28.667Z,10.54
2022-09-28T07:37:28.662Z,10.59
2022-09-28T07:38:28.651Z,10.52
2022-09-28T07:39:28.876Z,10.30
2022-09-28T07:40:28.663Z,10.33
2022-09-28T07:41:28.652Z,10.35
2022-09-28T07:42:28.619Z,10.40
2022-09-28T07:43:28.610Z,10.31
2022-09-28T07:44:28.610Z,10.37
2022-09-28T07:45:28.638Z,10.37
2022-09-28T07:46:28.624Z,10.53
2022-09-28T07:47:33.881Z,10.67
2022-09-28T07:48:30.573Z,10.78
2022-09-28T07:49:28.564Z,10.92
2022-09-28T07:50:28.594Z,10.96
2022-09-28T07:51:28.549Z,11.01
2022-09-28T07:52:28.551Z,10.86
2022-09-28T07:53:28.545Z,10.83
2022-09-28T07:54:28.527Z,10.74
2022-09-28T07:55:28.515Z,10.65
2022-09-28T07:56:28.540Z,10.67
2022-09-28T07:57:28.507Z,10.82
2022-09-28T07:58:28.498Z,10.83
2022-09-28T07:59:28.484Z,10.89
2022-09-28T08:00:33.209Z,10.93
2022-09-28T08:01:30.601Z,11.19
2022-09-28T08:02:54.087Z,11.26
2022-09-28T08:03:28.449Z,11.33
2022-09-28T08:04:28.443Z,11.53
2022-09-28T08:05:28.432Z,11.63
2022-09-28T08:06:28.453Z,12.05
2022-09-28T08:07:28.422Z,13.05
2022-09-28T08:08:28.407Z,13.77
2022-09-28T08:09:28.399Z,13.75
2022-09-28T08:10:28.397Z,13.78
2022-09-28T08:11:28.413Z,13.92
2022-09-28T08:12:28.375Z,13.45
2022-09-28T08:13:28.363Z,13.31
2022-09-28T08:14:28.361Z,13.30
2022-09-28T08:15:28.352Z,13.29
2022-09-28T08:16:28.471Z,13.52
2022-09-28T08:17:28.337Z,13.72
2022-09-28T08:18:28.322Z,13.82
2022-09-28T08:19:28.325Z,14.23
2022-09-28T08:20:28.312Z,14.03
2022-09-28T08:21:28.332Z,13.49
2022-09-28T08:22:29.327Z,12.87
2022-09-28T08:23:28.297Z,12.63
2022-09-28T08:24:28.278Z,12.39
2022-09-28T08:25:28.261Z,12.07
2022-09-28T08:26:28.291Z,11.91
2022-09-28T08:27:28.257Z,11.65
2022-09-28T08:28:28.239Z,11.65
2022-09-28T08:29:28.230Z,11.56
2022-09-28T08:30:28.270Z,11.50
2022-09-28T08:31:28.247Z,11.53
2022-09-28T08:32:28.219Z,11.47
2022-09-28T08:33:28.209Z,11.50
2022-09-28T08:34:28.187Z,11.46
2022-09-28T08:35:28.189Z,11.44
2022-09-28T08:36:28.205Z,11.47
2022-09-28T08:37:28.167Z,11.50
2022-09-28T08:38:28.159Z,11.28
2022-09-28T08:39:28.153Z,11.30
2022-09-28T08:40:28.185Z,11.20
2022-09-28T08:41:28.158Z,11.11
2022-09-28T08:42:28.127Z,11.23
2022-09-28T08:43:28.126Z,11.07
2022-09-28T08:44:28.113Z,11.14
2022-09-28T08:45:28.107Z,11.30
2022-09-28T08:46:28.167Z,11.30
2022-09-28T08:47:28.085Z,11.29
2022-09-28T08:48:28.074Z,11.38
2022-09-28T08:49:28.160Z,11.35
2022-09-28T08:50:28.058Z,11.46
2022-09-28T08:51:28.083Z,11.54
2022-09-28T08:52:28.042Z,11.26
2022-09-28T08:53:28.032Z,11.35
2022-09-28T08:54:28.038Z,11.29
2022-09-28T08:55:28.027Z,11.22
2022-09-28T08:56:28.042Z,11.17
2022-09-28T08:57:27.998Z,11.74
2022-09-28T08:58:27.990Z,12.98
2022-09-28T08:59:27.980Z,14.62
2022-09-28T09:00:27.973Z,15.60
2022-09-28T09:01:28.017Z,15.07
2022-09-28T09:02:27.997Z,14.51
2022-09-28T09:03:27.948Z,14.97
2022-09-28T09:04:27.951Z,15.46
2022-09-28T09:05:27.934Z,16.61
2022-09-28T09:06:27.952Z,17.73
2022-09-28T09:07:27.914Z,17.33
2022-09-28T09:08:27.902Z,17.24
2022-09-28T09:09:27.897Z,16.69
2022-09-28T09:10:27.901Z,16.06
2022-09-28T09:11:27.909Z,15.55
2022-09-28T09:12:27.879Z,15.27
2022-09-28T09:13:27.872Z,14.89
2022-09-28T09:14:27.861Z,14.38
2022-09-28T09:15:27.843Z,14.62
2022-09-28T09:16:29.667Z,15.83
2022-09-28T09:17:28.838Z,17.27
2022-09-28T09:18:27.827Z,16.90
2022-09-28T09:19:27.838Z,17.60
2022-09-28T09:20:27.810Z,17.75
2022-09-28T09:21:27.825Z,17.70
2022-09-28T09:22:27.787Z,17.42
2022-09-28T09:23:27.779Z,16.87
2022-09-28T09:24:27.772Z,17.02
2022-09-28T09:25:27.772Z,17.45
2022-09-28T09:26:27.792Z,17.17
2022-09-28T09:27:27.754Z,17.05
2022-09-28T09:28:27.760Z,17.33
2022-09-28T09:29:27.736Z,16.66
2022-09-28T09:30:30.664Z,16.12
2022-09-28T09:31:28.742Z,15.44
2022-09-28T09:32:27.706Z,14.69
2022-09-28T09:33:27.695Z,13.86
2022-09-28T09:34:27.692Z,13.35
2022-09-28T09:35:30.588Z,13.35
2022-09-28T09:36:28.703Z,13.39
2022-09-28T09:37:27.669Z,12.83
2022-09-28T09:38:27.656Z,12.90
2022-09-28T09:39:27.648Z,12.83
2022-09-28T09:40:27.690Z,12.82
2022-09-28T09:41:27.661Z,12.98
2022-09-28T09:42:27.625Z,13.05
2022-09-28T09:43:30.888Z,13.16
2022-09-28T09:44:27.598Z,13.24
2022-09-28T09:45:27.596Z,13.74
2022-09-28T09:46:27.646Z,13.86
2022-09-28T09:47:27.579Z,14.01
2022-09-28T09:48:27.577Z,14.00
2022-09-28T09:49:27.571Z,13.96
2022-09-28T09:50:27.552Z,13.92
2022-09-28T09:51:27.593Z,14.00
2022-09-28T09:52:27.591Z,13.90
2022-09-28T09:53:27.537Z,14.04
2022-09-28T09:54:27.527Z,14.18
2022-09-28T09:55:29.967Z,14.29
2022-09-28T09:56:28.551Z,14.66
2022-09-28T09:57:27.509Z,16.05
2022-09-28T09:58:27.512Z,16.17
2022-09-28T09:59:27.494Z,15.92
2022-09-28T10:00:27.479Z,16.34
2022-09-28T10:01:27.545Z,15.88
2022-09-28T10:02:27.534Z,15.39
2022-09-28T10:03:27.461Z,15.06
2022-09-28T10:04:27.443Z,14.56
2022-09-28T10:05:27.435Z,14.15
2022-09-28T10:06:27.435Z,14.38
2022-09-28T10:07:27.454Z,15.12
2022-09-28T10:08:27.423Z,16.01
2022-09-28T10:09:27.410Z,16.59
2022-09-28T10:10:27.395Z,15.80
2022-09-28T10:11:27.390Z,15.50
2022-09-28T10:12:27.440Z,15.09
2022-09-28T10:13:27.370Z,15.17
2022-09-28T10:14:27.362Z,14.56
2022-09-28T10:15:27.357Z,14.96
2022-09-28T10:16:27.428Z,15.18
2022-09-28T10:17:27.436Z,15.92
2022-09-28T10:18:27.328Z,16.53
2022-09-28T10:19:27.324Z,17.63
2022-09-28T10:20:27.321Z,18.55
2022-09-28T10:21:27.321Z,18.92
2022-09-28T10:22:27.335Z,19.42
2022-09-28T10:23:27.295Z,19.48
2022-09-28T10:24:27.286Z,18.55
2022-09-28T10:25:27.273Z,17.76
2022-09-28T10:26:27.273Z,17.22
2022-09-28T10:27:27.284Z,16.61
2022-09-28T10:28:27.250Z,16.32
2022-09-28T10:29:27.239Z,16.06
2022-09-28T10:30:27.237Z,16.99
2022-09-28T10:31:27.225Z,17.41
2022-09-28T10:32:27.254Z,18.15
2022-09-28T10:33:27.216Z,18.52
2022-09-28T10:34:27.206Z,17.97
2022-09-28T10:35:27.189Z,17.59
2022-09-28T10:36:27.182Z,17.85
2022-09-28T10:37:27.208Z,18.34
2022-09-28T10:38:27.167Z,19.16
2022-09-28T10:39:27.159Z,19.46
2022-09-28T10:40:27.267Z,19.12
2022-09-28T10:41:27.142Z,18.62
2022-09-28T10:42:27.160Z,17.82
2022-09-28T10:43:27.124Z,16.96
2022-09-28T10:44:27.118Z,16.65
2022-09-28T10:45:27.112Z,16.13
2022-09-28T10:46:27.146Z,16.38
2022-09-28T10:47:27.116Z,17.30
2022-09-28T10:48:27.086Z,17.91
2022-09-28T10:49:27.084Z,18.85
2022-09-28T10:50:27.068Z,19.63
2022-09-28T10:51:27.058Z,20.06
2022-09-28T10:52:27.086Z,20.22
2022-09-28T10:53:27.046Z,21.20
2022-09-28T10:54:27.040Z,21.42
2022-09-28T10:55:27.029Z,20.34
2022-09-28T10:56:27.032Z,19.76
2022-09-28T10:57:27.041Z,18.66
2022-09-28T10:58:26.995Z,19.69
2022-09-28T10:59:27.998Z,21.00
2022-09-28T11:00:26.995Z,19.46
2022-09-28T11:01:27.051Z,18.81
2022-09-28T11:02:27.052Z,19.16
2022-09-28T11:03:26.968Z,20.37
2022-09-28T11:04:26.957Z,19.86
2022-09-28T11:05:26.947Z,19.81
2022-09-28T11:06:26.951Z,19.67
2022-09-28T11:07:26.956Z,19.56
2022-09-28T11:08:26.935Z,20.39
2022-09-28T11:09:29.847Z,20.89
2022-09-28T11:10:27.910Z,19.99
2022-09-28T11:11:26.909Z,18.67
2022-09-28T11:12:26.926Z,18.35
2022-09-28T11:13:26.887Z,17.04
2022-09-28T11:14:26.883Z,17.20
2022-09-28T11:15:26.866Z,17.51
2022-09-28T11:16:26.904Z,17.04
2022-09-28T11:17:26.880Z,17.76
2022-09-28T11:18:26.844Z,17.19
2022-09-28T11:19:26.841Z,16.57
2022-09-28T11:20:28.286Z,16.17
2022-09-28T11:21:27.825Z,15.98
2022-09-28T11:22:26.852Z,15.46
2022-09-28T11:23:26.810Z,15.04
2022-09-28T11:24:27.359Z,15.18
2022-09-28T11:25:26.801Z,15.22
2022-09-28T11:26:26.779Z,15.43
2022-09-28T11:27:26.804Z,15.61
2022-09-28T11:28:26.764Z,15.52
2022-09-28T11:29:26.785Z,15.69
2022-09-28T11:30:26.787Z,15.91
2022-09-28T11:31:26.742Z,15.94
2022-09-28T11:32:26.764Z,16.09
2022-09-28T11:33:26.726Z,15.94
2022-09-28T11:34:41.699Z,16.68
2022-09-28T11:35:28.709Z,16.61
2022-09-28T11:36:26.702Z,17.37
2022-09-28T11:37:26.724Z,18.49
2022-09-28T11:38:26.684Z,18.95
2022-09-28T11:39:26.676Z,19.39
2022-09-28T11:40:26.733Z,18.90
2022-09-28T11:41:26.657Z,19.45
2022-09-28T11:42:26.682Z,20.28
2022-09-28T11:43:26.646Z,19.86
2022-09-28T11:44:29.516Z,20.74
2022-09-28T11:45:28.620Z,20.22
2022-09-28T11:46:26.704Z,19.70
2022-09-28T11:47:26.645Z,20.78
2022-09-28T11:48:26.612Z,20.92
2022-09-28T11:49:26.585Z,19.18
2022-09-28T11:50:26.593Z,18.03
2022-09-28T11:51:26.593Z,16.75
2022-09-28T11:52:26.598Z,15.88
2022-09-28T11:53:26.557Z,15.42
2022-09-28T11:54:26.555Z,14.84
2022-09-28T11:55:26.546Z,14.68
2022-09-28T11:56:26.546Z,14.95
2022-09-28T11:57:26.566Z,14.96
2022-09-28T11:58:26.537Z,14.43
2022-09-28T11:59:26.515Z,14.41
2022-09-28T12:00:26.509Z,15.04
2022-09-28T12:01:26.504Z,16.53
2022-09-28T12:02:26.645Z,17.65
2022-09-28T12:03:26.567Z,18.38
2022-09-28T12:04:26.487Z,18.89
2022-09-28T12:05:26.479Z,19.12
2022-09-28T12:06:26.458Z,18.95
2022-09-28T12:07:26.483Z,18.44
2022-09-28T12:08:26.442Z,17.93
2022-09-28T12:09:26.440Z,17.37
2022-09-28T12:10:26.430Z,17.12
2022-09-28T12:11:26.419Z,17.01
2022-09-28T12:12:26.439Z,17.20
2022-09-28T12:13:26.401Z,16.47
2022-09-28T12:14:26.399Z,16.61
2022-09-28T12:15:26.393Z,16.01
2022-09-28T12:17:26.852Z,15.90
2022-09-28T12:17:28.489Z,16.05
2022-09-28T12:18:26.365Z,15.79
2022-09-28T12:19:26.353Z,14.68
2022-09-28T12:20:26.337Z,14.66
2022-09-28T12:21:26.335Z,14.93
2022-09-28T12:22:26.357Z,15.04
2022-09-28T12:23:26.390Z,15.00
2022-09-28T12:24:26.312Z,14.66
2022-09-28T12:25:26.313Z,14.30
2022-09-28T12:26:26.293Z,14.23
2022-09-28T12:27:26.316Z,14.05
2022-09-28T12:28:26.286Z,13.78
2022-09-28T12:29:26.276Z,13.75
2022-09-28T12:30:26.268Z,13.49
2022-09-28T12:31:26.257Z,13.50
2022-09-28T12:32:26.280Z,13.56
2022-09-28T12:33:26.242Z,13.45
2022-09-28T12:34:26.233Z,13.21
2022-09-28T12:35:26.246Z,13.06
2022-09-28T12:36:26.236Z,13.01
2022-09-28T12:37:26.252Z,12.90
2022-09-28T12:38:26.201Z,12.83
2022-09-28T12:39:40.791Z,12.64
2022-09-28T12:40:28.215Z,12.53
2022-09-28T12:41:26.170Z,12.60
2022-09-28T12:42:26.198Z,12.51
2022-09-28T12:43:26.165Z,12.54
2022-09-28T12:44:26.145Z,12.57
2022-09-28T12:45:26.155Z,12.69
2022-09-28T12:46:26.181Z,12.53
2022-09-28T12:47:26.158Z,12.64
2022-09-28T12:48:26.122Z,12.60
2022-09-28T12:50:51.203Z,12.24
2022-09-28T12:51:28.104Z,12.05
2022-09-28T12:52:26.114Z,12.05
2022-09-28T12:53:26.105Z,12.14
2022-09-28T12:54:26.071Z,12.20
2022-09-28T12:55:26.062Z,12.53
2022-09-28T12:56:26.070Z,12.94
2022-09-28T12:57:26.084Z,13.27
2022-09-28T12:58:26.030Z,13.71
2022-09-28T12:59:26.024Z,13.85
2022-09-28T13:00:26.015Z,14.00
2022-09-28T13:01:26.050Z,14.01
2022-09-28T13:02:26.066Z,13.96
2022-09-28T13:03:25.991Z,13.96
2022-09-28T13:04:25.981Z,14.25
2022-09-28T13:05:25.982Z,14.44
2022-09-28T13:06:25.972Z,14.51
2022-09-28T13:07:25.966Z,14.33